createdAt,value
2022-11-26T00:02:22.809Z,-0.77
2022-11-26T00:04:51.178Z,-0.73
2022-11-26T00:07:25.487Z,-0.70
2022-11-26T00:09:53.850Z,-0.69
2022-11-26T00:12:23.658Z,-0.69
2022-11-26T00:14:51.248Z,-0.71
2022-11-26T00:17:19.386Z,-0.73
2022-11-26T00:19:46.787Z,-0.76
2022-11-26T00:22:31.939Z,-0.83
2022-11-26T00:24:58.800Z,-0.88
2022-11-26T00:27:27.160Z,-0.91
2022-11-26T00:29:54.701Z,-0.94
2022-11-26T00:32:24.778Z,-0.97
2022-11-26T00:34:52.711Z,-1.00
2022-11-26T00:37:27.813Z,-1.01
2022-11-26T00:39:55.877Z,-1.03
2022-11-26T00:42:22.870Z,-1.04
2022-11-26T00:44:49.922Z,-1.06
2022-11-26T00:47:16.640Z,-1.06
2022-11-26T00:49:43.489Z,-1.06
2022-11-26T00:52:33.664Z,-1.05
2022-11-26T00:55:06.692Z,-1.06
2022-11-26T00:57:34.221Z,-1.08
2022-11-26T01:00:00.977Z,-1.11
2022-11-26T01:02:27.840Z,-1.13
2022-11-26T01:04:54.697Z,-1.12
2022-11-26T01:07:21.530Z,-1.14
2022-11-26T01:09:49.555Z,-1.15
2022-11-26T01:12:16.308Z,-1.16
2022-11-26T01:14:43.116Z,-1.18
2022-11-26T01:17:11.635Z,-1.20
2022-11-26T01:19:38.422Z,-1.22
2022-11-26T01:22:05.155Z,-1.24
2022-11-26T01:24:31.943Z,-1.18
2022-11-26T01:26:58.682Z,-1.11
2022-11-26T01:29:25.542Z,-1.04
2022-11-26T01:31:52.361Z,-0.96
2022-11-26T01:34:19.159Z,-0.90
2022-11-26T01:36:45.911Z,-0.86
2022-11-26T01:39:20.786Z,-0.83
2022-11-26T01:41:59.466Z,-0.83
2022-11-26T01:44:29.392Z,-0.81
2022-11-26T01:46:57.690Z,-0.76
2022-11-26T01:49:33.037Z,-0.71
2022-11-26T01:52:05.617Z,-0.67
2022-11-26T01:54:36.468Z,-0.65
2022-11-26T01:57:18.395Z,-0.64
2022-11-26T01:59:50.606Z,-0.63
2022-11-26T02:02:18.404Z,-0.62
2022-11-26T02:04:54.656Z,-0.62
2022-11-26T02:07:21.561Z,-0.61
2022-11-26T02:09:48.572Z,-0.59
2022-11-26T02:12:15.380Z,-0.58
2022-11-26T02:14:43.572Z,-0.57
2022-11-26T02:17:24.889Z,-0.56
2022-11-26T02:20:13.081Z,-0.55
2022-11-26T02:22:45.829Z,-0.53
2022-11-26T02:25:15.438Z,-0.52
2022-11-26T02:28:09.948Z,-0.50
2022-11-26T02:30:41.404Z,-0.47
2022-11-26T02:33:34.649Z,-0.47
2022-11-26T02:36:21.789Z,-0.44
2022-11-26T02:38:49.801Z,-0.42
2022-11-26T02:41:17.400Z,-0.41
2022-11-26T02:43:44.630Z,-0.40
2022-11-26T02:46:18.118Z,-0.39
2022-11-26T02:48:49.322Z,-0.38
2022-11-26T02:51:23.650Z,-0.37
2022-11-26T02:53:52.227Z,-0.36
2022-11-26T02:56:28.897Z,-0.34
2022-11-26T02:58:56.834Z,-0.33
2022-11-26T03:01:39.490Z,-0.31
2022-11-26T03:04:11.281Z,-0.31
2022-11-26T03:06:39.729Z,-0.30
2022-11-26T03:09:06.888Z,-0.29
2022-11-26T03:11:33.848Z,-0.28
2022-11-26T03:14:00.808Z,-0.27
2022-11-26T03:16:27.644Z,-0.26
2022-11-26T03:18:54.518Z,-0.25
2022-11-26T03:21:21.356Z,-0.23
2022-11-26T03:23:48.342Z,-0.22
2022-11-26T03:26:15.152Z,-0.21
2022-11-26T03:28:41.973Z,-0.20
2022-11-26T03:31:08.856Z,-0.19
2022-11-26T03:33:35.740Z,-0.18
2022-11-26T03:36:02.800Z,-0.16
2022-11-26T03:38:29.590Z,-0.18
2022-11-26T03:41:01.712Z,-0.14
2022-11-26T03:46:20.700Z,-0.12
2022-11-26T03:48:47.500Z,-0.12
2022-11-26T03:51:14.267Z,-0.11
2022-11-26T03:53:41.096Z,-0.11
2022-11-26T03:56:08.145Z,-0.10
2022-11-26T03:58:35.113Z,-0.11
2022-11-26T04:01:07.926Z,-0.12
2022-11-26T04:03:34.852Z,-0.11
2022-11-26T04:06:01.970Z,-0.11
2022-11-26T04:08:28.820Z,-0.10
2022-11-26T04:10:55.650Z,-0.10
2022-11-26T04:13:22.618Z,-0.11
2022-11-26T04:15:49.548Z,-0.11
2022-11-26T04:18:16.342Z,-0.11
2022-11-26T04:20:43.500Z,-0.11
2022-11-26T04:23:10.706Z,-0.11
2022-11-26T04:25:37.477Z,-0.11
2022-11-26T04:28:04.377Z,-0.11
2022-11-26T04:30:31.325Z,-0.10
2022-11-26T04:32:58.154Z,-0.09
2022-11-26T04:35:25.068Z,-0.08
2022-11-26T04:37:51.944Z,-0.08
2022-11-26T04:40:19.503Z,-0.06
2022-11-26T04:42:46.281Z,-0.05
2022-11-26T04:45:13.100Z,-0.05
2022-11-26T04:47:42.889Z,-0.04
2022-11-26T04:50:10.820Z,-0.04
2022-11-26T04:52:37.667Z,-0.04
2022-11-26T04:55:04.864Z,-0.04
2022-11-26T04:57:31.695Z,-0.03
2022-11-26T04:59:58.476Z,-0.03
2022-11-26T05:02:25.326Z,-0.02
2022-11-26T05:04:52.194Z,-0.02
2022-11-26T05:07:19.134Z,-0.02
2022-11-26T05:09:45.969Z,-0.00
2022-11-26T05:12:12.875Z,-0.01
2022-11-26T05:14:40.069Z,-0.01
2022-11-26T05:17:07.240Z,-0.03
2022-11-26T05:19:34.418Z,-0.07
2022-11-26T05:22:01.240Z,-0.08
2022-11-26T05:24:28.147Z,-0.09
2022-11-26T05:26:57.213Z,-0.09
2022-11-26T05:29:25.455Z,-0.10
2022-11-26T05:31:52.554Z,-0.10
2022-11-26T05:34:20.524Z,-0.08
2022-11-26T05:36:47.383Z,-0.06
2022-11-26T05:39:14.182Z,-0.04
2022-11-26T05:41:40.971Z,-0.02
2022-11-26T05:44:07.952Z,-0.02
2022-11-26T05:46:39.538Z,0.00
2022-11-26T05:49:06.899Z,0.01
2022-11-26T05:51:33.948Z,0.02
2022-11-26T05:54:00.977Z,0.00
2022-11-26T05:56:27.939Z,0.03
2022-11-26T05:58:54.867Z,0.04
2022-11-26T06:01:21.643Z,0.06
2022-11-26T06:03:48.462Z,0.08
2022-11-26T06:06:15.332Z,0.10
2022-11-26T06:08:42.031Z,0.11
2022-11-26T06:11:13.800Z,0.13
2022-11-26T06:13:40.610Z,0.15
2022-11-26T06:16:07.848Z,0.16
2022-11-26T06:18:37.308Z,0.17
2022-11-26T06:21:06.078Z,0.17
2022-11-26T06:23:33.933Z,0.18
2022-11-26T06:26:00.785Z,0.19
2022-11-26T06:28:27.531Z,0.22
2022-11-26T06:30:55.306Z,0.24
2022-11-26T06:33:22.172Z,0.27
2022-11-26T06:35:48.964Z,0.29
2022-11-26T06:38:18.489Z,0.32
2022-11-26T06:40:45.308Z,0.30
2022-11-26T06:43:12.260Z,0.41
2022-11-26T06:45:39.091Z,0.49
2022-11-26T06:48:05.937Z,0.62
2022-11-26T06:50:32.910Z,0.77
2022-11-26T06:52:59.756Z,0.88
2022-11-26T06:55:26.545Z,0.98
2022-11-26T06:57:53.869Z,1.05
2022-11-26T07:00:21.512Z,1.13
2022-11-26T07:02:48.414Z,1.19
2022-11-26T07:05:15.291Z,1.30
2022-11-26T07:07:42.252Z,1.39
2022-11-26T07:10:09.279Z,1.41
2022-11-26T07:12:36.357Z,1.39
2022-11-26T07:15:03.578Z,1.29
2022-11-26T07:17:30.355Z,1.28
2022-11-26T07:19:57.339Z,1.19
2022-11-26T07:22:24.156Z,1.15
2022-11-26T07:24:51.074Z,1.13
2022-11-26T07:27:17.784Z,1.14
2022-11-26T07:29:44.567Z,1.18
2022-11-26T07:32:11.344Z,1.20
2022-11-26T07:34:38.354Z,1.21
2022-11-26T07:37:05.674Z,1.23
2022-11-26T07:39:32.550Z,1.21
2022-11-26T07:41:59.311Z,1.19
2022-11-26T07:44:26.163Z,1.18
2022-11-26T07:46:53.138Z,1.19
2022-11-26T07:49:19.917Z,1.19
2022-11-26T07:51:46.948Z,1.21
2022-11-26T07:54:13.738Z,1.24
2022-11-26T07:56:40.445Z,1.27
2022-11-26T07:59:07.235Z,1.29
2022-11-26T08:01:36.069Z,1.32
2022-11-26T08:04:05.933Z,1.35
2022-11-26T08:06:33.972Z,1.38
2022-11-26T08:09:02.288Z,1.41
2022-11-26T08:11:32.330Z,1.44
2022-11-26T08:14:05.477Z,1.47
2022-11-26T08:16:33.417Z,1.51
2022-11-26T08:19:03.475Z,1.57
2022-11-26T08:21:30.323Z,1.65
2022-11-26T08:23:58.123Z,1.71
2022-11-26T08:26:33.059Z,1.74
2022-11-26T08:29:03.197Z,1.79
2022-11-26T08:31:30.000Z,1.85
2022-11-26T08:34:01.293Z,1.94
2022-11-26T08:36:29.744Z,2.01
2022-11-26T08:38:57.641Z,2.10
2022-11-26T08:41:24.583Z,2.23
2022-11-26T08:44:06.060Z,2.50
2022-11-26T08:46:37.791Z,2.60
2022-11-26T08:49:05.674Z,2.65
2022-11-26T08:51:33.822Z,2.71
2022-11-26T08:54:00.992Z,2.77
2022-11-26T08:56:27.950Z,2.77
2022-11-26T08:58:54.700Z,2.86
2022-11-26T09:01:30.350Z,3.01
2022-11-26T09:03:59.724Z,3.10
2022-11-26T09:06:29.511Z,3.13
2022-11-26T09:09:14.956Z,3.26
2022-11-26T09:11:45.828Z,3.42
2022-11-26T09:14:15.094Z,3.56
2022-11-26T09:16:42.615Z,3.65
2022-11-26T09:19:11.323Z,3.88
2022-11-26T09:21:38.466Z,4.04
2022-11-26T09:24:05.931Z,4.26
2022-11-26T09:26:33.799Z,4.44
2022-11-26T09:29:01.300Z,4.51
2022-11-26T09:31:28.909Z,4.50
2022-11-26T09:33:58.050Z,4.48
2022-11-26T09:36:25.711Z,4.48
2022-11-26T09:38:56.695Z,4.43
2022-11-26T09:41:32.102Z,4.47
2022-11-26T09:44:14.217Z,4.39
2022-11-26T09:47:12.082Z,4.48
2022-11-26T09:49:51.005Z,4.87
2022-11-26T09:52:20.795Z,5.41
2022-11-26T09:54:51.732Z,5.52
2022-11-26T09:57:30.508Z,5.21
2022-11-26T09:59:57.407Z,4.97
2022-11-26T10:02:25.323Z,4.77
2022-11-26T10:04:52.655Z,4.53
2022-11-26T10:07:44.753Z,4.38
2022-11-26T10:10:21.327Z,4.24
2022-11-26T10:13:17.190Z,4.10
2022-11-26T10:16:19.820Z,3.92
2022-11-26T10:19:02.371Z,3.76
2022-11-26T10:21:58.093Z,3.70
2022-11-26T10:24:41.616Z,3.62
2022-11-26T10:27:15.657Z,3.50
2022-11-26T10:29:48.430Z,3.42
2022-11-26T10:32:23.284Z,3.35
2022-11-26T10:34:52.593Z,3.23
2022-11-26T10:37:21.777Z,3.19
2022-11-26T10:39:58.619Z,3.15
2022-11-26T10:42:41.265Z,3.15
2022-11-26T10:45:21.904Z,3.11
2022-11-26T10:47:48.734Z,3.10
2022-11-26T10:50:46.592Z,3.13
2022-11-26T10:53:06.337Z,3.12
2022-11-26T10:55:43.124Z,3.11
2022-11-26T10:58:21.714Z,3.16
2022-11-26T11:00:48.665Z,3.20
2022-11-26T11:03:33.183Z,3.20
2022-11-26T11:06:25.430Z,3.25
2022-11-26T11:08:54.018Z,3.26
2022-11-26T11:11:27.286Z,3.27
2022-11-26T11:13:54.665Z,3.27
2022-11-26T11:16:40.174Z,3.28
2022-11-26T11:19:21.417Z,3.26
2022-11-26T11:21:48.935Z,3.28
2022-11-26T11:24:17.213Z,3.31
2022-11-26T11:26:47.021Z,3.29
2022-11-26T11:29:42.954Z,3.29
2022-11-26T11:32:35.006Z,3.29
2022-11-26T11:35:29.847Z,3.29
2022-11-26T11:37:57.655Z,3.29
2022-11-26T11:40:29.803Z,3.33
2022-11-26T11:43:04.902Z,3.36
2022-11-26T11:46:00.663Z,3.38
2022-11-26T11:48:49.096Z,3.41
2022-11-26T11:51:36.962Z,3.38
2022-11-26T11:54:20.455Z,3.37
2022-11-26T11:57:05.069Z,3.37
2022-11-26T11:59:57.674Z,3.37
2022-11-26T12:02:37.223Z,3.35
2022-11-26T12:05:22.458Z,3.34
2022-11-26T12:07:58.417Z,3.35
2022-11-26T12:10:39.668Z,3.38
2022-11-26T12:13:12.603Z,3.42
2022-11-26T12:15:52.398Z,3.44
2022-11-26T12:18:31.186Z,3.46
2022-11-26T12:21:24.127Z,3.47
2022-11-26T12:23:58.097Z,3.45
2022-11-26T12:26:36.253Z,3.47
2022-11-26T12:29:14.202Z,3.49
2022-11-26T12:31:48.778Z,3.51
2022-11-26T12:34:39.919Z,3.53
2022-11-26T12:37:18.249Z,3.57
2022-11-26T12:39:55.263Z,3.59
2022-11-26T12:42:33.711Z,3.62
2022-11-26T12:45:29.978Z,3.60
2022-11-26T12:48:05.197Z,3.64
2022-11-26T12:50:42.724Z,3.68
2022-11-26T12:53:47.161Z,3.70
2022-11-26T12:56:41.140Z,3.71
2022-11-26T12:59:07.819Z,3.66
2022-11-26T13:01:34.694Z,3.64
2022-11-26T13:04:29.826Z,3.67
2022-11-26T13:07:05.916Z,3.72
2022-11-26T13:10:10.261Z,3.82
2022-11-26T13:13:02.217Z,4.33
2022-11-26T13:15:41.502Z,4.80
2022-11-26T13:18:43.120Z,5.02
2022-11-26T13:21:16.115Z,5.19
2022-11-26T13:23:45.551Z,5.36
2022-11-26T13:26:37.512Z,5.31
2022-11-26T13:29:33.633Z,5.39
2022-11-26T13:32:26.698Z,5.22
2022-11-26T13:35:16.638Z,4.92
2022-11-26T13:38:05.101Z,4.68
2022-11-26T13:40:40.029Z,4.48
2022-11-26T13:43:10.062Z,4.35
2022-11-26T13:45:49.199Z,4.20
2022-11-26T13:48:37.248Z,4.05
2022-11-26T13:51:11.968Z,3.88
2022-11-26T13:53:56.299Z,3.75
2022-11-26T13:56:26.591Z,3.62
2022-11-26T13:59:08.073Z,3.50
2022-11-26T14:01:42.193Z,3.39
2022-11-26T14:04:32.224Z,3.31
2022-11-26T14:07:05.179Z,3.21
2022-11-26T14:09:44.319Z,3.13
2022-11-26T14:12:12.839Z,3.06
2022-11-26T14:14:41.985Z,3.02
2022-11-26T14:17:23.229Z,2.97
2022-11-26T14:19:56.249Z,2.92
2022-11-26T14:22:22.905Z,2.89
2022-11-26T14:24:52.138Z,2.86
2022-11-26T14:27:25.206Z,2.82
2022-11-26T14:30:07.011Z,2.79
2022-11-26T14:32:39.865Z,2.75
2022-11-26T14:35:20.574Z,2.73
2022-11-26T14:37:53.029Z,2.70
2022-11-26T14:40:26.537Z,2.68
2022-11-26T14:43:14.935Z,2.67
2022-11-26T14:45:44.201Z,2.65
2022-11-26T14:48:21.027Z,2.64
2022-11-26T14:50:48.137Z,2.64
2022-11-26T14:53:15.656Z,2.59
2022-11-26T14:55:43.908Z,2.63
2022-11-26T14:58:18.568Z,2.63
2022-11-26T15:01:20.431Z,2.62
2022-11-26T15:04:25.017Z,2.60
2022-11-26T15:06:51.961Z,2.58
2022-11-26T15:09:25.109Z,2.55
2022-11-26T15:12:12.071Z,2.53
2022-11-26T15:14:55.258Z,2.52
2022-11-26T15:17:24.155Z,2.51
2022-11-26T15:19:53.654Z,2.50
2022-11-26T15:22:33.998Z,2.49
2022-11-26T15:25:01.302Z,2.47
2022-11-26T15:27:47.534Z,2.45
2022-11-26T15:30:24.417Z,2.44
2022-11-26T15:33:02.446Z,2.43
2022-11-26T15:35:30.469Z,2.42
2022-11-26T15:37:57.947Z,2.42
2022-11-26T15:40:47.038Z,2.41
2022-11-26T15:43:22.037Z,2.39
2022-11-26T15:45:50.779Z,2.39
2022-11-26T15:48:51.882Z,2.39
2022-11-26T15:51:30.709Z,2.38
2022-11-26T15:54:01.990Z,2.37
2022-11-26T15:56:36.293Z,2.37
2022-11-26T15:59:12.803Z,2.36
2022-11-26T16:01:43.890Z,2.35
2022-11-26T16:04:32.485Z,2.33
2022-11-26T16:07:20.650Z,2.32
2022-11-26T16:09:49.668Z,2.31
2022-11-26T16:12:34.022Z,2.30
2022-11-26T16:15:18.965Z,2.29
2022-11-26T16:17:47.628Z,2.27
2022-11-26T16:20:24.723Z,2.27
2022-11-26T16:22:56.303Z,2.26
2022-11-26T16:25:34.046Z,2.25
2022-11-26T16:28:09.916Z,2.25
2022-11-26T16:30:38.535Z,2.24
2022-11-26T16:33:06.532Z,2.24
2022-11-26T16:35:50.436Z,2.23
2022-11-26T16:38:22.757Z,2.24
2022-11-26T16:40:50.164Z,2.23
2022-11-26T16:43:17.882Z,2.23
2022-11-26T16:45:45.614Z,2.22
2022-11-26T16:48:23.887Z,2.22
2022-11-26T16:50:53.058Z,2.21
2022-11-26T16:53:20.067Z,2.21
2022-11-26T16:55:49.253Z,2.21
2022-11-26T16:58:26.176Z,2.21
2022-11-26T17:00:54.171Z,2.21
2022-11-26T17:03:24.772Z,2.21
2022-11-26T17:05:55.053Z,2.22
2022-11-26T17:08:22.538Z,2.23
2022-11-26T17:10:50.736Z,2.23
2022-11-26T17:13:17.964Z,2.24
2022-11-26T17:15:44.981Z,2.25
2022-11-26T17:18:22.619Z,2.26
2022-11-26T17:20:50.859Z,2.27
2022-11-26T17:23:18.235Z,2.27
2022-11-26T17:25:48.009Z,2.28
2022-11-26T17:28:15.591Z,2.28
2022-11-26T17:30:44.140Z,2.23
2022-11-26T17:33:11.049Z,2.27
2022-11-26T17:35:38.410Z,2.27
2022-11-26T17:38:13.751Z,2.28
2022-11-26T17:40:41.273Z,2.27
2022-11-26T17:43:08.400Z,2.27
2022-11-26T17:45:35.129Z,2.27
2022-11-26T17:48:01.903Z,2.27
2022-11-26T17:50:30.202Z,2.27
2022-11-26T17:52:56.920Z,2.26
2022-11-26T17:55:25.988Z,2.25
2022-11-26T17:57:54.734Z,2.24
2022-11-26T18:00:27.542Z,2.22
2022-11-26T18:02:57.518Z,2.21
2022-11-26T18:05:25.003Z,2.18
2022-11-26T18:07:52.340Z,2.16
2022-11-26T18:10:21.868Z,2.14
2022-11-26T18:12:51.467Z,2.13
2022-11-26T18:15:21.015Z,2.11
2022-11-26T18:17:50.394Z,2.10
2022-11-26T18:20:19.767Z,2.09
2022-11-26T18:22:50.534Z,2.08
2022-11-26T18:25:17.346Z,2.07
2022-11-26T18:27:45.021Z,2.05
2022-11-26T18:30:13.141Z,2.04
2022-11-26T18:32:40.120Z,2.05
2022-11-26T18:35:07.707Z,2.05
2022-11-26T18:37:36.410Z,2.04
2022-11-26T18:40:04.606Z,2.03
2022-11-26T18:42:38.900Z,2.02
2022-11-26T18:45:08.622Z,2.01
2022-11-26T18:47:37.053Z,2.00
2022-11-26T18:50:04.590Z,1.99
2022-11-26T18:52:31.319Z,1.98
2022-11-26T18:54:59.429Z,1.98
2022-11-26T18:57:27.337Z,1.93
2022-11-26T18:59:54.069Z,1.97
2022-11-26T19:02:22.438Z,1.92
2022-11-26T19:04:49.387Z,1.98
2022-11-26T19:07:16.222Z,1.98
2022-11-26T19:09:43.386Z,1.98
2022-11-26T19:12:12.415Z,1.96
2022-11-26T19:14:39.462Z,1.95
2022-11-26T19:17:06.507Z,1.94
2022-11-26T19:19:33.543Z,1.94
2022-11-26T19:22:01.652Z,1.94
2022-11-26T19:24:29.726Z,1.93
2022-11-26T19:26:57.138Z,1.92
2022-11-26T19:29:24.024Z,1.90
2022-11-26T19:31:50.785Z,1.89
2022-11-26T19:34:17.617Z,1.89
2022-11-26T19:36:47.626Z,1.88
2022-11-26T19:39:15.396Z,1.88
2022-11-26T19:41:42.545Z,1.88
2022-11-26T19:44:09.387Z,1.88
2022-11-26T19:46:40.077Z,1.86
2022-11-26T20:13:48.512Z,1.80
2022-11-26T20:16:25.502Z,1.79
2022-11-26T20:18:52.998Z,1.79
2022-11-26T20:21:23.366Z,1.78
2022-11-26T20:23:51.250Z,1.77
2022-11-26T20:26:28.475Z,1.77
2022-11-26T20:28:59.091Z,1.76
2022-11-26T20:31:25.997Z,1.76
2022-11-26T20:33:54.216Z,1.77
2022-11-26T20:36:22.260Z,1.77
2022-11-26T20:38:58.698Z,1.77
2022-11-26T20:41:29.267Z,1.78
2022-11-26T20:43:59.966Z,1.78
2022-11-26T20:46:27.922Z,1.78
2022-11-26T20:48:56.107Z,1.77
2022-11-26T20:51:24.323Z,1.78
2022-11-26T20:53:52.715Z,1.76
2022-11-26T20:56:21.759Z,1.76
2022-11-26T20:58:50.009Z,1.75
2022-11-26T21:01:18.503Z,1.75
2022-11-26T21:03:45.588Z,1.74
2022-11-26T21:06:18.059Z,1.72
2022-11-26T21:08:45.362Z,1.72
2022-11-26T21:11:13.744Z,1.72
2022-11-26T21:13:41.841Z,1.72
2022-11-26T21:16:15.956Z,1.72
2022-11-26T21:18:43.509Z,1.74
2022-11-26T21:21:12.611Z,1.72
2022-11-26T21:23:41.261Z,1.72
2022-11-26T21:26:10.379Z,1.71
2022-11-26T21:28:37.766Z,1.70
2022-11-26T21:31:10.736Z,1.69
2022-11-26T21:33:37.623Z,1.68
2022-11-26T21:36:06.223Z,1.67
2022-11-26T21:38:33.862Z,1.66
2022-11-26T21:41:11.969Z,1.66
2022-11-26T21:43:40.081Z,1.66
2022-11-26T21:46:09.392Z,1.67
2022-11-26T21:48:36.337Z,1.69
2022-11-26T21:51:08.892Z,1.71
2022-11-26T21:53:35.800Z,1.71
2022-11-26T21:56:12.907Z,1.71
2022-11-26T21:58:40.161Z,1.70
2022-11-26T22:01:18.558Z,1.70
2022-11-26T22:03:52.208Z,1.70
2022-11-26T22:06:20.711Z,1.70
2022-11-26T22:08:48.205Z,1.71
2022-11-26T22:11:20.891Z,1.73
2022-11-26T22:13:48.195Z,1.74
2022-11-26T22:16:17.163Z,1.74
2022-11-26T22:18:45.203Z,1.76
2022-11-26T22:21:24.546Z,1.74
2022-11-26T22:23:51.879Z,1.76
2022-11-26T22:26:19.668Z,1.76
2022-11-26T22:28:48.162Z,1.77
2022-11-26T22:31:18.805Z,1.77
2022-11-26T22:33:46.025Z,1.77
2022-11-26T22:36:13.395Z,1.77
2022-11-26T22:38:41.464Z,1.78
2022-11-26T22:41:11.206Z,1.78
2022-11-26T22:43:38.815Z,1.78
2022-11-26T22:46:13.833Z,1.79
2022-11-26T22:48:41.782Z,1.80
2022-11-26T22:51:09.603Z,1.80
2022-11-26T22:53:36.692Z,1.80
2022-11-26T22:56:04.609Z,1.79
2022-11-26T22:58:33.539Z,1.77
2022-11-26T23:01:03.631Z,1.76
2022-11-26T23:03:33.095Z,1.76
2022-11-26T23:06:05.522Z,1.76
2022-11-26T23:08:32.899Z,1.75
2022-11-26T23:11:10.482Z,1.74
2022-11-26T23:13:40.683Z,1.75
2022-11-26T23:16:08.813Z,1.76
2022-11-26T23:18:36.934Z,1.78
2022-11-26T23:21:06.771Z,1.78
2022-11-26T23:23:34.021Z,1.77
2022-11-26T23:26:02.677Z,1.77
2022-11-26T23:28:31.149Z,1.77
2022-11-26T23:31:07.916Z,1.77
2022-11-26T23:33:35.539Z,1.78
2022-11-26T23:36:02.700Z,1.78
2022-11-26T23:38:31.565Z,1.77
2022-11-26T23:41:01.796Z,1.77
2022-11-26T23:43:30.636Z,1.74
2022-11-26T23:46:14.178Z,1.77
2022-11-26T23:48:41.684Z,1.79
2022-11-26T23:51:11.653Z,1.81
2022-11-26T23:53:40.976Z,1.83
2022-11-26T23:56:11.633Z,1.85
2022-11-26T23:58:38.479Z,1.85
